createdAt,value
2018-07-01T00:00:25.618Z,29.3
2018-07-01T00:01:28.365Z,29.8
2018-07-01T00:02:31.105Z,29.8
2018-07-01T00:03:33.581Z,29.3
2018-07-01T00:04:36.060Z,29.3
2018-07-01T00:05:38.823Z,29.3
2018-07-01T00:06:41.574Z,29.8
2018-07-01T00:07:44.049Z,29.3
2018-07-01T00:08:46.810Z,29.3
2018-07-01T00:09:49.559Z,29.8
2018-07-01T00:10:52.719Z,29.3
2018-07-01T00:11:55.465Z,29.3
2018-07-01T00:12:58.194Z,29.3
2018-07-01T00:14:00.937Z,29.3
2018-07-01T00:15:03.665Z,29.8
2018-07-01T00:16:06.411Z,28.8
2018-07-01T00:17:09.156Z,29.3
2018-07-01T00:18:11.904Z,29.3
2018-07-01T00:19:14.643Z,29.3
2018-07-01T00:20:17.387Z,28.8
2018-07-01T00:21:20.148Z,29.3
2018-07-01T00:22:22.911Z,29.3
2018-07-01T00:23:25.671Z,29.3
2018-07-01T00:24:28.427Z,28.8
2018-07-01T00:25:30.896Z,28.8
2018-07-01T00:26:33.637Z,29.3
2018-07-01T00:27:36.395Z,29.3
2018-07-01T00:28:39.134Z,29.3
2018-07-01T00:29:41.876Z,29.3
2018-07-01T00:30:44.626Z,28.8
2018-07-01T00:31:47.120Z,29.3
2018-07-01T00:32:49.887Z,28.8
2018-07-01T00:33:52.611Z,28.8
2018-07-01T00:34:55.362Z,28.8
2018-07-01T00:35:58.123Z,28.8
2018-07-01T00:37:00.855Z,28.8
2018-07-01T00:38:03.610Z,28.8
2018-07-01T00:39:06.350Z,28.8
2018-07-01T00:40:08.834Z,28.8
2018-07-01T00:41:11.583Z,28.8
2018-07-01T00:42:14.065Z,29.3
2018-07-01T00:43:16.809Z,28.8
2018-07-01T00:44:19.562Z,28.8
2018-07-01T00:45:22.307Z,28.8
2018-07-01T00:46:25.044Z,28.8
2018-07-01T00:47:27.509Z,28.3
2018-07-01T00:48:30.246Z,28.8
2018-07-01T00:49:32.981Z,28.8
2018-07-01T00:50:35.716Z,28.8
2018-07-01T00:51:38.183Z,28.8
2018-07-01T00:52:40.928Z,28.8
2018-07-01T00:53:43.682Z,28.8
2018-07-01T00:54:46.413Z,28.8
2018-07-01T00:55:49.157Z,28.8
2018-07-01T00:56:51.903Z,28.8
2018-07-01T00:57:54.636Z,28.3
2018-07-01T00:58:57.103Z,28.8
2018-07-01T00:59:59.851Z,28.8
2018-07-01T01:01:02.598Z,28.8
2018-07-01T01:02:05.340Z,29.3
2018-07-01T01:03:08.080Z,28.8
2018-07-01T01:04:10.568Z,28.3
2018-07-01T01:05:13.312Z,28.8
2018-07-01T01:06:16.050Z,28.8
2018-07-01T01:07:18.522Z,28.8
2018-07-01T01:08:21.273Z,28.8
2018-07-01T01:09:24.020Z,28.8
2018-07-01T01:10:26.756Z,28.8
2018-07-01T01:11:29.498Z,29.3
2018-07-01T01:12:32.233Z,28.8
2018-07-01T01:13:34.710Z,29.3
2018-07-01T01:14:37.449Z,29.3
2018-07-01T01:15:40.210Z,29.8
2018-07-01T01:16:42.947Z,29.3
2018-07-01T01:17:45.688Z,29.3
2018-07-01T01:18:48.437Z,28.8
2018-07-01T01:19:50.919Z,29.3
2018-07-01T01:20:53.673Z,29.3
2018-07-01T01:21:56.428Z,29.3
2018-07-01T01:22:59.160Z,29.3
2018-07-01T01:24:01.912Z,29.3
2018-07-01T01:25:04.642Z,29.3
2018-07-01T01:26:07.119Z,29.3
2018-07-01T01:27:09.579Z,28.8
2018-07-01T01:28:12.320Z,29.3
2018-07-01T01:29:15.064Z,29.3
2018-07-01T01:30:17.814Z,29.8
2018-07-01T01:31:20.551Z,28.8
2018-07-01T01:32:23.290Z,29.3
2018-07-01T01:33:26.064Z,29.3
2018-07-01T01:34:28.816Z,29.3
2018-07-01T01:35:31.560Z,29.8
2018-07-01T01:36:34.049Z,29.8
2018-07-01T01:37:36.510Z,29.3
2018-07-01T01:38:39.249Z,29.3
2018-07-01T01:39:41.725Z,29.3
2018-07-01T01:40:44.472Z,29.8
2018-07-01T01:41:47.209Z,29.8
2018-07-01T01:42:49.944Z,29.8
2018-07-01T01:43:52.696Z,29.8
2018-07-01T01:44:55.437Z,29.8
2018-07-01T01:45:58.164Z,30.3
2018-07-01T01:47:00.897Z,30.8
2018-07-01T01:48:03.644Z,30.8
2018-07-01T01:49:06.378Z,30.8
2018-07-01T01:50:09.119Z,30.8
2018-07-01T01:51:11.855Z,31.3
2018-07-01T01:52:14.589Z,31.3
2018-07-01T01:53:17.326Z,31.3
2018-07-01T01:54:20.058Z,31.3
2018-07-01T01:55:22.813Z,31.3
2018-07-01T01:56:25.558Z,31.8
2018-07-01T01:57:28.030Z,31.8
2018-07-01T01:58:30.775Z,31.8
2018-07-01T01:59:33.514Z,31.8
2018-07-01T02:00:36.262Z,31.8
2018-07-01T02:01:38.730Z,31.8
2018-07-01T02:02:41.466Z,31.8
2018-07-01T02:03:43.958Z,32.3
2018-07-01T02:04:46.700Z,31.8
2018-07-01T02:05:49.439Z,32.3
2018-07-01T02:06:52.200Z,32.7
2018-07-01T02:07:54.960Z,32.3
2018-07-01T02:08:57.693Z,32.3
2018-07-01T02:09:59.898Z,32.3
2018-07-01T02:11:02.641Z,32.3
2018-07-01T02:12:05.386Z,32.3
2018-07-01T02:13:08.115Z,32.3
2018-07-01T02:14:10.591Z,32.7
2018-07-01T02:15:13.331Z,32.3
2018-07-01T02:16:15.811Z,32.7
2018-07-01T02:17:18.283Z,32.7
2018-07-01T02:18:21.020Z,32.7
2018-07-01T02:19:23.776Z,32.3
2018-07-01T02:20:26.500Z,32.3
2018-07-01T02:21:29.249Z,32.3
2018-07-01T02:22:31.981Z,32.7
2018-07-01T02:23:34.733Z,32.7
2018-07-01T02:24:37.458Z,32.3
2018-07-01T02:25:39.945Z,32.7
2018-07-01T02:26:42.674Z,32.7
2018-07-01T02:27:45.150Z,32.7
2018-07-01T02:28:47.888Z,32.3
2018-07-01T02:29:50.373Z,32.7
2018-07-01T02:30:53.119Z,32.3
2018-07-01T02:31:55.853Z,33.2
2018-07-01T02:32:58.588Z,32.7
2018-07-01T02:34:01.058Z,32.7
2018-07-01T02:35:03.805Z,33.2
2018-07-01T02:36:06.540Z,32.7
2018-07-01T02:37:09.285Z,32.7
2018-07-01T02:38:12.048Z,32.7
2018-07-01T02:39:14.789Z,32.3
2018-07-01T02:40:17.525Z,32.7
2018-07-01T02:41:20.271Z,32.7
2018-07-01T02:42:23.008Z,32.7
2018-07-01T02:43:25.744Z,32.7
2018-07-01T02:44:27.678Z,32.7
2018-07-01T02:45:30.410Z,32.3
2018-07-01T02:46:33.161Z,32.7
2018-07-01T02:47:35.654Z,32.7
2018-07-01T02:48:37.848Z,32.7
2018-07-01T02:49:40.587Z,33.2
2018-07-01T02:50:43.070Z,32.7
2018-07-01T02:51:45.533Z,32.7
2018-07-01T02:52:48.049Z,32.7
2018-07-01T02:53:50.842Z,32.7
2018-07-01T02:54:53.840Z,32.7
2018-07-01T02:55:56.567Z,33.2
2018-07-01T02:56:59.081Z,32.7
2018-07-01T02:58:01.823Z,32.7
2018-07-01T02:59:04.025Z,32.7
2018-07-01T03:00:06.764Z,33.2
2018-07-01T03:01:09.242Z,33.2
2018-07-01T03:02:11.982Z,32.7
2018-07-01T03:03:14.461Z,32.7
2018-07-01T03:05:19.369Z,32.7
2018-07-01T03:06:22.104Z,32.7
2018-07-01T03:07:24.571Z,32.7
2018-07-01T03:08:27.064Z,32.7
2018-07-01T03:09:29.812Z,32.7
2018-07-01T03:10:32.560Z,32.7
2018-07-01T03:11:35.337Z,32.7
2018-07-01T03:12:38.079Z,33.2
2018-07-01T03:13:40.817Z,32.7
2018-07-01T03:14:43.579Z,32.7
2018-07-01T03:15:46.058Z,33.2
2018-07-01T03:16:48.789Z,32.7
2018-07-01T03:17:51.528Z,32.7
2018-07-01T03:18:54.005Z,32.7
2018-07-01T03:19:56.784Z,32.7
2018-07-01T03:20:59.516Z,32.3
2018-07-01T03:22:01.989Z,32.3
2018-07-01T03:23:04.730Z,32.7
2018-07-01T03:24:07.474Z,32.3
2018-07-01T03:25:10.229Z,32.3
2018-07-01T03:26:12.992Z,32.3
2018-07-01T03:27:15.760Z,32.3
2018-07-01T03:28:18.219Z,31.8
2018-07-01T03:29:20.966Z,31.8
2018-07-01T03:30:23.447Z,32.3
2018-07-01T03:31:25.916Z,31.8
2018-07-01T03:32:28.647Z,32.3
2018-07-01T03:33:31.412Z,31.8
2018-07-01T03:34:34.160Z,32.3
2018-07-01T03:35:36.920Z,32.3
2018-07-01T03:36:39.672Z,32.3
2018-07-01T03:37:42.416Z,32.3
2018-07-01T03:38:45.164Z,32.3
2018-07-01T03:39:47.900Z,31.8
2018-07-01T03:40:50.643Z,31.8
2018-07-01T03:41:53.379Z,32.3
2018-07-01T03:42:56.119Z,32.7
2018-07-01T03:43:58.872Z,32.3
2018-07-01T03:45:01.343Z,32.7
2018-07-01T03:46:04.085Z,32.7
2018-07-01T03:47:06.827Z,32.7
2018-07-01T03:48:09.562Z,33.2
2018-07-01T03:49:12.329Z,32.7
2018-07-01T03:50:15.362Z,32.7
2018-07-01T03:51:17.895Z,32.7
2018-07-01T03:52:20.630Z,33.2
2018-07-01T03:53:23.357Z,33.2
2018-07-01T03:54:25.828Z,33.2
2018-07-01T03:55:28.567Z,32.7
2018-07-01T03:56:31.300Z,33.7
2018-07-01T03:57:34.112Z,33.2
2018-07-01T03:58:36.849Z,33.2
2018-07-01T03:59:39.584Z,33.2
2018-07-01T04:00:42.326Z,33.7
2018-07-01T04:01:45.149Z,33.2
2018-07-01T04:02:47.901Z,33.7
2018-07-01T04:03:50.629Z,33.2
2018-07-01T04:04:53.367Z,33.2
2018-07-01T04:05:55.554Z,33.7
2018-07-01T04:06:58.300Z,33.2
2018-07-01T04:08:01.040Z,33.2
2018-07-01T04:09:03.780Z,33.7
2018-07-01T04:10:06.527Z,33.7
2018-07-01T04:11:09.271Z,33.2
2018-07-01T04:12:12.005Z,33.7
2018-07-01T04:13:14.757Z,33.2
2018-07-01T04:14:17.496Z,33.7
2018-07-01T04:15:20.236Z,33.7
2018-07-01T04:16:22.970Z,33.7
2018-07-01T04:17:25.440Z,33.7
2018-07-01T04:18:28.198Z,33.7
2018-07-01T04:19:30.937Z,33.7
2018-07-01T04:20:33.402Z,33.7
2018-07-01T04:21:36.184Z,33.7
2018-07-01T04:22:38.934Z,33.7
2018-07-01T04:23:41.678Z,34.2
2018-07-01T04:24:44.427Z,34.2
2018-07-01T04:25:47.169Z,34.2
2018-07-01T04:26:49.648Z,34.2
2018-07-01T04:27:52.389Z,33.7
2018-07-01T04:28:55.125Z,33.2
2018-07-01T04:29:57.871Z,33.7
2018-07-01T04:31:00.525Z,33.7
2018-07-01T04:32:03.278Z,33.7
2018-07-01T04:33:06.023Z,33.7
2018-07-01T04:34:08.492Z,33.7
2018-07-01T04:35:11.008Z,33.2
2018-07-01T04:36:13.741Z,33.2
2018-07-01T04:37:16.224Z,33.7
2018-07-01T04:38:18.970Z,33.2
2018-07-01T04:39:21.717Z,33.7
2018-07-01T04:40:24.454Z,33.2
2018-07-01T04:41:27.198Z,33.7
2018-07-01T04:42:29.994Z,33.7
2018-07-01T04:43:32.733Z,33.2
2018-07-01T04:44:35.204Z,33.2
2018-07-01T04:45:37.968Z,33.7
2018-07-01T04:46:40.718Z,33.7
2018-07-01T04:47:43.464Z,33.2
2018-07-01T04:48:46.198Z,33.2
2018-07-01T04:49:48.940Z,33.2
2018-07-01T04:50:51.688Z,33.7
2018-07-01T04:51:54.431Z,33.2
2018-07-01T04:52:56.639Z,33.2
2018-07-01T04:53:59.106Z,33.7
2018-07-01T04:55:02.369Z,33.2
2018-07-01T04:56:05.308Z,33.2
2018-07-01T04:57:07.818Z,33.7
2018-07-01T04:58:10.302Z,33.2
2018-07-01T04:59:13.039Z,33.2
2018-07-01T05:00:15.770Z,33.2
2018-07-01T05:01:18.236Z,33.2
2018-07-01T05:02:21.093Z,33.2
2018-07-01T05:03:23.883Z,33.7
2018-07-01T05:04:26.628Z,33.2
2018-07-01T05:05:29.088Z,33.2
2018-07-01T05:06:31.837Z,32.7
2018-07-01T05:07:34.322Z,33.2
2018-07-01T05:08:36.842Z,33.2
2018-07-01T05:09:39.610Z,33.2
2018-07-01T05:10:42.366Z,33.2
2018-07-01T05:11:44.859Z,33.7
2018-07-01T05:12:47.594Z,32.7
2018-07-01T05:13:50.342Z,33.2
2018-07-01T05:14:52.825Z,33.2
2018-07-01T05:15:55.561Z,32.7
2018-07-01T05:16:58.036Z,32.7
2018-07-01T05:18:00.780Z,32.7
2018-07-01T05:19:03.524Z,32.7
2018-07-01T05:20:06.264Z,32.7
2018-07-01T05:21:09.020Z,32.3
2018-07-01T05:22:11.746Z,32.7
2018-07-01T05:23:14.469Z,32.3
2018-07-01T05:24:16.968Z,32.3
2018-07-01T05:25:19.428Z,32.3
2018-07-01T05:26:22.199Z,32.3
2018-07-01T05:27:24.947Z,32.3
2018-07-01T05:28:27.692Z,32.3
2018-07-01T05:29:30.161Z,32.3
2018-07-01T05:30:32.893Z,32.3
2018-07-01T05:31:35.629Z,32.3
2018-07-01T05:32:38.379Z,32.3
2018-07-01T05:33:41.016Z,32.3
2018-07-01T05:34:43.790Z,32.3
2018-07-01T05:35:46.551Z,31.8
2018-07-01T05:36:49.291Z,32.3
2018-07-01T05:37:52.063Z,31.8
2018-07-01T05:38:54.789Z,31.8
2018-07-01T05:39:57.549Z,31.8
2018-07-01T05:41:00.037Z,32.3
2018-07-01T05:42:02.498Z,32.3
2018-07-01T05:43:05.228Z,32.3
2018-07-01T05:44:07.974Z,32.3
2018-07-01T05:45:10.713Z,32.3
2018-07-01T05:46:13.459Z,31.8
2018-07-01T05:47:16.209Z,32.3
2018-07-01T05:48:18.953Z,31.8
2018-07-01T05:49:21.998Z,31.8
2018-07-01T05:50:24.760Z,32.7
2018-07-01T05:51:27.491Z,32.3
2018-07-01T05:52:30.241Z,32.3
2018-07-01T05:53:33.028Z,32.3
2018-07-01T05:54:35.761Z,32.3
2018-07-01T05:55:38.513Z,32.3
2018-07-01T05:56:41.259Z,32.3
2018-07-01T05:57:44.004Z,32.3
2018-07-01T05:58:46.770Z,31.8
2018-07-01T05:59:49.514Z,32.3
2018-07-01T06:00:52.260Z,31.8
2018-07-01T06:01:54.756Z,32.3
2018-07-01T06:02:57.487Z,31.3
2018-07-01T06:03:59.983Z,31.8
2018-07-01T06:05:02.724Z,31.8
2018-07-01T06:06:05.462Z,31.8
2018-07-01T06:07:08.205Z,31.8
2018-07-01T06:08:10.944Z,31.8
2018-07-01T06:09:13.847Z,31.8
2018-07-01T06:10:16.580Z,31.8
2018-07-01T06:11:19.315Z,31.8
2018-07-01T06:12:22.055Z,31.8
2018-07-01T06:13:24.808Z,31.8
2018-07-01T06:14:27.575Z,31.8
2018-07-01T06:15:30.316Z,31.8
2018-07-01T06:16:33.736Z,31.8
2018-07-01T06:17:36.505Z,31.8
2018-07-01T06:18:39.250Z,31.8
2018-07-01T06:19:41.993Z,31.3
2018-07-01T06:20:44.761Z,31.8
2018-07-01T06:21:47.212Z,31.3
2018-07-01T06:22:49.971Z,31.8
2018-07-01T06:23:52.719Z,31.3
2018-07-01T06:24:55.478Z,31.8
2018-07-01T06:25:58.234Z,31.3
2018-07-01T06:27:00.700Z,31.3
2018-07-01T06:28:03.434Z,31.8
2018-07-01T06:29:06.169Z,31.3
2018-07-01T06:30:08.904Z,31.3
2018-07-01T06:31:11.648Z,31.3
2018-07-01T06:32:14.406Z,31.3
2018-07-01T06:33:16.881Z,31.8
2018-07-01T06:34:19.616Z,30.8
2018-07-01T06:35:22.350Z,31.3
2018-07-01T06:36:25.096Z,30.8
2018-07-01T06:37:27.825Z,31.3
2018-07-01T06:38:30.314Z,31.3
2018-07-01T06:39:33.080Z,30.8
2018-07-01T06:40:35.866Z,31.3
2018-07-01T06:41:38.609Z,31.3
2018-07-01T06:42:41.095Z,31.3
2018-07-01T06:43:43.582Z,30.8
2018-07-01T06:44:46.324Z,31.3
2018-07-01T06:45:49.069Z,31.3
2018-07-01T06:46:51.835Z,30.8
2018-07-01T06:47:54.587Z,31.3
2018-07-01T06:48:57.324Z,31.3
2018-07-01T06:50:00.082Z,30.8
2018-07-01T06:51:02.546Z,30.8
2018-07-01T06:52:05.287Z,30.3
2018-07-01T06:53:08.033Z,30.3
2018-07-01T06:54:10.819Z,30.3
2018-07-01T06:55:13.621Z,30.8
2018-07-01T06:56:15.834Z,30.8
2018-07-01T06:57:18.626Z,30.3
2018-07-01T06:58:21.385Z,30.8
2018-07-01T06:59:24.131Z,30.8
2018-07-01T07:00:26.900Z,30.8
2018-07-01T07:01:29.635Z,30.8
2018-07-01T07:02:32.911Z,30.3
2018-07-01T07:03:35.365Z,30.3
2018-07-01T07:04:37.836Z,30.8
2018-07-01T07:05:40.624Z,30.3
2018-07-01T07:06:43.356Z,30.8
2018-07-01T07:07:46.301Z,37.1
2018-07-01T07:08:49.089Z,40.6
2018-07-01T07:09:51.829Z,41.5
2018-07-01T07:10:54.574Z,42.5
2018-07-01T07:11:57.034Z,43
2018-07-01T07:12:59.512Z,42.5
2018-07-01T07:14:02.000Z,43
2018-07-01T07:15:04.477Z,43.5
2018-07-01T07:16:07.207Z,42
2018-07-01T07:17:09.984Z,42
2018-07-01T07:18:12.728Z,42
2018-07-01T07:19:15.480Z,42
2018-07-01T07:20:18.229Z,41.5
2018-07-01T07:21:20.974Z,41.5
2018-07-01T07:22:23.729Z,40.6
2018-07-01T07:23:26.489Z,41.1
2018-07-01T07:24:29.557Z,40.1
2018-07-01T07:25:32.010Z,39.6
2018-07-01T07:26:34.748Z,39.6
2018-07-01T07:27:37.510Z,39.6
2018-07-01T07:28:40.249Z,39.1
2018-07-01T07:29:42.995Z,39.6
2018-07-01T07:30:45.459Z,39.1
2018-07-01T07:31:47.955Z,38.6
2018-07-01T07:32:50.703Z,39.1
2018-07-01T07:33:53.459Z,38.6
2018-07-01T07:34:56.200Z,38.6
2018-07-01T07:35:58.949Z,38.6
2018-07-01T07:37:01.716Z,38.6
2018-07-01T07:38:04.194Z,38.1
2018-07-01T07:39:06.965Z,38.1
2018-07-01T07:40:09.719Z,37.6
2018-07-01T07:41:12.471Z,38.1
2018-07-01T07:42:15.219Z,37.6
2018-07-01T07:43:17.963Z,38.1
2018-07-01T07:44:20.709Z,37.6
2018-07-01T07:45:23.192Z,37.6
2018-07-01T07:46:25.931Z,37.6
2018-07-01T07:47:28.684Z,37.1
2018-07-01T07:48:31.415Z,37.1
2018-07-01T07:49:34.155Z,37.1
2018-07-01T07:50:36.899Z,37.1
2018-07-01T07:51:39.625Z,37.1
2018-07-01T07:52:42.114Z,37.1
2018-07-01T07:53:44.860Z,36.7
2018-07-01T07:54:47.614Z,36.7
2018-07-01T07:55:50.346Z,37.1
2018-07-01T07:56:53.078Z,36.7
2018-07-01T07:57:55.552Z,36.7
2018-07-01T07:58:58.296Z,36.7
2018-07-01T08:00:01.029Z,36.7
2018-07-01T08:01:03.492Z,36.7
2018-07-01T08:02:06.635Z,36.2
2018-07-01T08:03:09.493Z,36.2
2018-07-01T08:04:12.234Z,36.2
2018-07-01T08:05:14.690Z,35.7
2018-07-01T08:06:17.445Z,35.7
2018-07-01T08:07:20.391Z,35.7
2018-07-01T08:08:23.134Z,35.7
2018-07-01T08:09:25.870Z,35.7
2018-07-01T08:10:28.640Z,35.7
2018-07-01T08:11:31.380Z,35.7
2018-07-01T08:12:33.875Z,35.7
2018-07-01T08:13:36.665Z,35.7
2018-07-01T08:14:38.859Z,35.7
2018-07-01T08:15:41.605Z,35.2
2018-07-01T08:16:44.355Z,35.2
2018-07-01T08:17:47.097Z,35.2
2018-07-01T08:18:49.853Z,35.7
2018-07-01T08:19:52.586Z,35.2
2018-07-01T08:20:55.333Z,35.2
2018-07-01T08:21:58.369Z,35.2
2018-07-01T08:23:00.982Z,34.7
2018-07-01T08:24:03.445Z,35.2
2018-07-01T08:25:05.911Z,34.7
2018-07-01T08:26:08.661Z,34.7
2018-07-01T08:27:11.158Z,34.7
2018-07-01T08:28:13.665Z,34.2
2018-07-01T08:29:16.127Z,34.7
2018-07-01T08:30:18.049Z,34.7
2018-07-01T08:31:20.811Z,34.2
2018-07-01T08:32:23.322Z,35.2
2018-07-01T08:33:25.819Z,34.7
2018-07-01T08:34:28.678Z,34.7
2018-07-01T08:35:31.529Z,35.2
2018-07-01T08:36:34.264Z,34.7
2018-07-01T08:37:37.017Z,34.7
2018-07-01T08:38:39.779Z,34.7
2018-07-01T08:39:42.004Z,34.7
2018-07-01T08:40:44.739Z,34.7
2018-07-01T08:41:47.499Z,35.2
2018-07-01T08:42:50.270Z,35.2
2018-07-01T08:43:53.008Z,34.7
2018-07-01T08:44:55.739Z,34.7
2018-07-01T08:45:58.484Z,35.2
2018-07-01T08:47:00.950Z,34.2
2018-07-01T08:48:03.436Z,34.7
2018-07-01T08:49:06.203Z,34.2
2018-07-01T08:50:08.956Z,35.2
2018-07-01T08:51:11.426Z,34.7
2018-07-01T08:52:14.179Z,34.7
2018-07-01T08:53:16.922Z,34.7
2018-07-01T08:54:19.419Z,34.7
2018-07-01T08:55:21.901Z,34.7
2018-07-01T08:56:24.655Z,34.7
2018-07-01T08:57:27.406Z,34.7
2018-07-01T08:58:30.153Z,34.7
2018-07-01T08:59:32.632Z,34.2
2018-07-01T09:00:35.376Z,34.2
2018-07-01T09:01:38.140Z,34.7
2018-07-01T09:02:40.635Z,34.7
2018-07-01T09:03:43.372Z,35.2
2018-07-01T09:04:46.119Z,34.7
2018-07-01T09:05:48.578Z,34.7
2018-07-01T09:06:51.313Z,35.2
2018-07-01T09:07:54.051Z,34.7
2018-07-01T09:08:57.110Z,34.2
2018-07-01T09:09:59.847Z,35.2
2018-07-01T09:11:02.590Z,34.2
2018-07-01T09:12:05.334Z,34.2
2018-07-01T09:13:08.068Z,34.7
2018-07-01T09:14:10.556Z,34.2
2018-07-01T09:15:13.307Z,34.7
2018-07-01T09:16:16.045Z,34.7
2018-07-01T09:17:18.906Z,34.2
2018-07-01T09:18:21.517Z,34.2
2018-07-01T09:19:24.254Z,34.7
2018-07-01T09:20:26.991Z,34.2
2018-07-01T09:21:29.480Z,34.2
2018-07-01T09:22:32.237Z,33.7
2018-07-01T09:23:34.682Z,33.7
2018-07-01T09:24:37.197Z,34.2
2018-07-01T09:25:39.941Z,34.2
2018-07-01T09:26:42.691Z,33.2
2018-07-01T09:27:45.437Z,33.7
2018-07-01T09:28:48.313Z,33.7
2018-07-01T09:29:51.095Z,33.7
2018-07-01T09:30:53.848Z,33.2
2018-07-01T09:31:56.619Z,33.7
2018-07-01T09:32:59.352Z,33.7
2018-07-01T09:34:02.147Z,33.7
2018-07-01T09:35:04.901Z,34.2
2018-07-01T09:36:07.639Z,33.7
2018-07-01T09:37:10.399Z,33.7
2018-07-01T09:38:12.869Z,33.2
2018-07-01T09:39:15.612Z,34.2
2018-07-01T09:40:17.808Z,33.7
2018-07-01T09:41:20.550Z,33.7
2018-07-01T09:42:23.037Z,33.7
2018-07-01T09:43:26.006Z,33.7
2018-07-01T09:44:28.890Z,33.2
2018-07-01T09:45:31.626Z,33.7
2018-07-01T09:46:34.360Z,33.7
2018-07-01T09:47:37.120Z,33.7
2018-07-01T09:48:39.895Z,33.2
2018-07-01T09:49:42.658Z,33.2
2018-07-01T09:50:45.798Z,33.2
2018-07-01T09:51:48.460Z,33.7
2018-07-01T09:52:51.198Z,33.2
2018-07-01T09:53:53.946Z,33.7
2018-07-01T09:54:56.686Z,33.2
2018-07-01T09:55:59.417Z,33.2
2018-07-01T09:57:02.187Z,33.7
2018-07-01T09:58:04.954Z,33.2
2018-07-01T09:59:07.705Z,33.7
2018-07-01T10:00:10.471Z,33.2
2018-07-01T10:01:13.250Z,33.7
2018-07-01T10:02:15.754Z,33.2
2018-07-01T10:03:18.493Z,33.2
2018-07-01T10:04:21.238Z,33.2
2018-07-01T10:05:23.983Z,32.7
2018-07-01T10:06:26.735Z,32.7
2018-07-01T10:07:29.478Z,33.2
2018-07-01T10:08:32.246Z,32.7
2018-07-01T10:09:34.726Z,33.2
2018-07-01T10:10:37.479Z,32.7
2018-07-01T10:11:40.215Z,32.7
2018-07-01T10:12:42.419Z,33.2
2018-07-01T10:13:44.919Z,33.2
2018-07-01T10:14:47.699Z,32.7
2018-07-01T10:15:50.433Z,33.2
2018-07-01T10:16:53.175Z,33.2
2018-07-01T10:17:55.627Z,33.2
2018-07-01T10:18:58.690Z,32.7
2018-07-01T10:20:01.439Z,32.7
2018-07-01T10:21:03.914Z,32.7
2018-07-01T10:22:06.661Z,33.2
2018-07-01T10:23:08.875Z,32.7
2018-07-01T10:24:11.635Z,32.7
2018-07-01T10:25:14.383Z,32.7
2018-07-01T10:26:17.128Z,33.2
2018-07-01T10:27:19.877Z,33.2
2018-07-01T10:28:22.093Z,33.7
2018-07-01T10:29:24.838Z,33.2
2018-07-01T10:30:27.586Z,33.2
2018-07-01T10:31:30.331Z,33.2
2018-07-01T10:32:33.513Z,33.2
2018-07-01T10:33:36.046Z,33.2
2018-07-01T10:34:38.516Z,33.2
2018-07-01T10:35:41.020Z,33.2
2018-07-01T10:36:43.500Z,33.2
2018-07-01T10:37:46.281Z,33.2
2018-07-01T10:38:49.017Z,33.2
2018-07-01T10:39:51.751Z,33.2
2018-07-01T10:40:54.503Z,33.2
2018-07-01T10:41:57.256Z,33.2
2018-07-01T10:42:59.738Z,33.2
2018-07-01T10:44:02.501Z,33.2
2018-07-01T10:45:05.264Z,33.2
2018-07-01T10:46:07.730Z,33.2
2018-07-01T10:47:10.468Z,33.2
2018-07-01T10:48:13.237Z,33.7
2018-07-01T10:49:15.720Z,33.7
2018-07-01T10:50:17.948Z,33.2
2018-07-01T10:51:20.991Z,33.7
2018-07-01T10:52:23.869Z,33.2
2018-07-01T10:53:26.328Z,33.7
2018-07-01T10:54:29.080Z,33.2
2018-07-01T10:55:31.844Z,33.2
2018-07-01T10:56:34.579Z,33.2
2018-07-01T10:57:37.299Z,33.2
2018-07-01T10:58:39.869Z,32.7
2018-07-01T10:59:42.346Z,33.2
2018-07-01T11:00:45.082Z,32.7
2018-07-01T11:01:47.544Z,33.2
2018-07-01T11:02:50.283Z,33.2
2018-07-01T11:03:53.019Z,32.7
2018-07-01T11:04:55.762Z,32.3
2018-07-01T11:05:58.886Z,32.7
2018-07-01T11:07:01.419Z,32.7
2018-07-01T11:08:04.170Z,32.3
2018-07-01T11:09:06.937Z,32.7
2018-07-01T11:10:09.679Z,32.7
2018-07-01T11:11:12.419Z,32.3
2018-07-01T11:12:15.181Z,32.3
2018-07-01T11:13:17.650Z,32.3
2018-07-01T11:14:20.379Z,32.3
2018-07-01T11:15:23.125Z,32.3
2018-07-01T11:16:25.898Z,32.3
2018-07-01T11:17:28.657Z,32.3
2018-07-01T11:18:31.564Z,31.8
2018-07-01T11:19:34.317Z,32.3
2018-07-01T11:20:37.081Z,32.3
2018-07-01T11:21:39.818Z,32.3
2018-07-01T11:22:42.569Z,32.7
2018-07-01T11:23:45.322Z,32.3
2018-07-01T11:24:47.793Z,32.3
2018-07-01T11:25:50.270Z,32.3
2018-07-01T11:26:54.019Z,32.3
2018-07-01T11:27:57.127Z,32.7
2018-07-01T11:28:59.864Z,32.3
2018-07-01T11:30:02.616Z,32.7
2018-07-01T11:31:05.359Z,32.3
2018-07-01T11:32:08.118Z,32.7
2018-07-01T11:33:10.857Z,32.3
2018-07-01T11:34:13.616Z,32.3
2018-07-01T11:35:15.855Z,32.3
2018-07-01T11:36:18.607Z,32.3
2018-07-01T11:37:21.365Z,32.3
2018-07-01T11:38:24.112Z,32.3
2018-07-01T11:39:26.848Z,32.7
2018-07-01T11:40:29.608Z,32.7
2018-07-01T11:41:32.352Z,32.7
2018-07-01T11:42:35.304Z,32.3
2018-07-01T11:43:38.138Z,32.3
2018-07-01T11:44:40.938Z,32.3
2018-07-01T11:45:43.860Z,32.3
2018-07-01T11:46:46.602Z,32.3
2018-07-01T11:47:49.354Z,32.7
2018-07-01T11:48:52.093Z,32.3
2018-07-01T11:49:54.851Z,32.7
2018-07-01T11:50:57.366Z,32.3
2018-07-01T11:52:00.126Z,31.8
2018-07-01T11:53:02.875Z,32.3
2018-07-01T11:54:05.631Z,31.8
2018-07-01T11:55:08.370Z,32.3
2018-07-01T11:56:11.109Z,32.3
2018-07-01T11:57:13.857Z,31.8
2018-07-01T11:58:16.619Z,31.8
2018-07-01T11:59:19.363Z,32.3
2018-07-01T12:00:22.106Z,32.3
2018-07-01T12:01:24.862Z,31.8
2018-07-01T12:02:27.600Z,32.3
2018-07-01T12:03:30.343Z,31.8
2018-07-01T12:04:33.080Z,32.3
2018-07-01T12:05:36.515Z,32.3
2018-07-01T12:06:39.271Z,32.3
2018-07-01T12:07:41.752Z,32.3
2018-07-01T12:08:44.495Z,31.8
2018-07-01T12:09:46.965Z,32.3
2018-07-01T12:10:49.717Z,31.8
2018-07-01T12:11:52.298Z,31.8
2018-07-01T12:12:55.114Z,32.3
2018-07-01T12:13:57.855Z,32.3
2018-07-01T12:15:00.604Z,32.3
2018-07-01T12:16:03.361Z,31.8
2018-07-01T12:17:06.125Z,31.8
2018-07-01T12:18:08.613Z,31.8
2018-07-01T12:19:11.348Z,31.8
2018-07-01T12:20:14.084Z,32.7
2018-07-01T12:21:16.527Z,31.8
2018-07-01T12:22:19.253Z,32.3
2018-07-01T12:23:22.356Z,31.8
2018-07-01T12:24:24.994Z,32.3
2018-07-01T12:25:27.467Z,32.3
2018-07-01T12:26:30.213Z,31.8
2018-07-01T12:27:32.986Z,31.8
2018-07-01T12:28:35.738Z,31.8
2018-07-01T12:29:38.205Z,32.3
2018-07-01T12:30:40.940Z,32.7
2018-07-01T12:31:43.681Z,32.3
2018-07-01T12:32:46.158Z,31.8
2018-07-01T12:33:48.901Z,31.8
2018-07-01T12:34:52.181Z,32.3
2018-07-01T12:35:54.903Z,31.8
2018-07-01T12:36:57.689Z,32.3
2018-07-01T12:38:00.472Z,32.3
2018-07-01T12:39:03.203Z,32.3
2018-07-01T12:40:05.943Z,32.3
2018-07-01T12:41:08.411Z,31.8
2018-07-01T12:42:12.068Z,32.7
2018-07-01T12:43:15.167Z,32.3
2018-07-01T12:44:17.919Z,32.3
2018-07-01T12:45:20.384Z,32.3
2018-07-01T12:46:23.130Z,32.3
2018-07-01T12:47:25.872Z,32.7
2018-07-01T12:48:28.619Z,32.3
2018-07-01T12:49:31.377Z,32.3
2018-07-01T12:50:34.109Z,31.8
2018-07-01T12:51:36.586Z,31.8
2018-07-01T12:52:39.057Z,31.3
2018-07-01T12:53:41.525Z,31.8
2018-07-01T12:54:44.268Z,31.3
2018-07-01T12:55:46.727Z,31.3
2018-07-01T12:56:49.479Z,31.8
2018-07-01T12:57:52.231Z,31.3
2018-07-01T12:58:54.974Z,31.3
2018-07-01T12:59:57.709Z,31.8
2018-07-01T13:01:00.174Z,31.8
2018-07-01T13:02:02.919Z,31.3
2018-07-01T13:03:05.666Z,31.3
2018-07-01T13:04:08.134Z,31.8
2018-07-01T13:05:10.889Z,31.3
2018-07-01T13:06:13.636Z,31.3
2018-07-01T13:07:16.412Z,31.8
2018-07-01T13:08:19.157Z,31.3
2018-07-01T13:09:21.376Z,31.3
2018-07-01T13:10:24.109Z,31.8
2018-07-01T13:11:26.562Z,31.8
2018-07-01T13:12:29.336Z,31.8
2018-07-01T13:13:31.821Z,31.8
2018-07-01T13:14:34.561Z,31.3
2018-07-01T13:15:37.032Z,31.8
2018-07-01T13:16:39.801Z,31.8
2018-07-01T13:17:42.556Z,31.8
2018-07-01T13:18:45.302Z,31.8
2018-07-01T13:19:48.038Z,31.8
2018-07-01T13:20:50.533Z,31.8
2018-07-01T13:21:53.310Z,31.3
2018-07-01T13:22:55.796Z,31.8
2018-07-01T13:23:58.272Z,31.8
2018-07-01T13:25:01.000Z,31.8
2018-07-01T13:26:03.476Z,31.8
2018-07-01T13:27:06.230Z,32.3
2018-07-01T13:28:08.968Z,31.8
2018-07-01T13:29:11.712Z,31.8
2018-07-01T13:30:14.447Z,31.8
2018-07-01T13:31:17.188Z,31.8
2018-07-01T13:32:19.944Z,32.3
2018-07-01T13:33:22.690Z,31.8
2018-07-01T13:34:25.466Z,32.3
2018-07-01T13:35:27.931Z,31.8
2018-07-01T13:36:30.680Z,32.3
2018-07-01T13:37:33.437Z,31.8
2018-07-01T13:38:36.385Z,31.8
2018-07-01T13:39:39.137Z,32.3
2018-07-01T13:40:41.870Z,32.3
2018-07-01T13:41:44.626Z,31.8
2018-07-01T13:42:47.519Z,31.8
2018-07-01T13:43:50.275Z,31.8
2018-07-01T13:44:53.032Z,31.8
2018-07-01T13:45:55.766Z,32.3
2018-07-01T13:46:58.499Z,32.3
2018-07-01T13:48:01.257Z,31.8
2018-07-01T13:49:03.996Z,32.3
2018-07-01T13:50:07.032Z,32.3
2018-07-01T13:51:09.799Z,32.3
2018-07-01T13:52:12.542Z,31.8
2018-07-01T13:53:15.286Z,32.3
2018-07-01T13:54:18.030Z,32.3
2018-07-01T13:55:20.503Z,32.3